sensor_id;sensor_type;location;lat;lon;timestamp;pressure;altitude;pressure_sealevel;temperature;humidity
62864;BME280;48954;59.950;11.014;2023-11-21T01:32:04;100349.70;;;-3.57;86.78
62864;BME280;48954;59.950;11.014;2023-11-21T01:35:34;100353.10;;;-3.56;86.68
62864;BME280;48954;59.950;11.014;2023-11-21T02:01:18;100373.23;;;-3.78;86.12
62864;BME280;48954;59.950;11.014;2023-11-21T02:11:05;100380.37;;;-3.95;86.13
62864;BME280;48954;59.950;11.014;2023-11-21T02:14:13;100380.34;;;-4.00;86.03
62864;BME280;48954;59.950;11.014;2023-11-21T02:17:11;100383.54;;;-4.04;85.94
62864;BME280;48954;59.950;11.014;2023-11-21T02:20:13;100384.98;;;-4.08;85.90
62864;BME280;48954;59.950;11.014;2023-11-21T02:23:16;100385.50;;;-4.13;85.98
62864;BME280;48954;59.950;11.014;2023-11-21T02:26:42;100384.48;;;-4.15;85.79
62864;BME280;48954;59.950;11.014;2023-11-21T02:30:15;100390.59;;;-4.18;85.72
62864;BME280;48954;59.950;11.014;2023-11-21T02:33:51;100397.58;;;-4.20;86.07
62864;BME280;48954;59.950;11.014;2023-11-21T02:36:51;100397.17;;;-4.22;85.81
62864;BME280;48954;59.950;11.014;2023-11-21T02:40:00;100399.58;;;-4.23;86.06
62864;BME280;48954;59.950;11.014;2023-11-21T02:43:23;100402.80;;;-4.23;85.95
62864;BME280;48954;59.950;11.014;2023-11-21T02:46:33;100403.99;;;-4.23;86.21
62864;BME280;48954;59.950;11.014;2023-11-21T02:49:15;100410.39;;;-4.22;86.14
62864;BME280;48954;59.950;11.014;2023-11-21T02:52:38;100410.33;;;-4.20;86.38
62864;BME280;48954;59.950;11.014;2023-11-21T02:55:44;100407.58;;;-4.17;86.59
62864;BME280;48954;59.950;11.014;2023-11-21T03:10:19;100429.33;;;-4.02;86.63
62864;BME280;48954;59.950;11.014;2023-11-21T03:13:47;100432.36;;;-4.00;86.44
62864;BME280;48954;59.950;11.014;2023-11-21T03:16:59;100438.95;;;-3.97;86.51
62864;BME280;48954;59.950;11.014;2023-11-21T03:20:17;100441.92;;;-3.97;86.58
62864;BME280;48954;59.950;11.014;2023-11-21T03:23:46;100444.13;;;-3.94;86.54
62864;BME280;48954;59.950;11.014;2023-11-21T03:26:55;100444.09;;;-3.92;86.34
62864;BME280;48954;59.950;11.014;2023-11-21T03:30:41;100443.36;;;-3.91;86.50
62864;BME280;48954;59.950;11.014;2023-11-21T03:41:14;100447.20;;;-3.93;86.48
62864;BME280;48954;59.950;11.014;2023-11-21T03:54:44;100452.90;;;-4.00;86.23
62864;BME280;48954;59.950;11.014;2023-11-21T04:09:54;100476.25;;;-4.25;85.90
62864;BME280;48954;59.950;11.014;2023-11-21T04:18:32;100493.35;;;-4.53;85.47
62864;BME280;48954;59.950;11.014;2023-11-21T04:25:00;100499.22;;;-4.71;85.24
62864;BME280;48954;59.950;11.014;2023-11-21T04:28:08;100503.83;;;-4.80;85.52
62864;BME280;48954;59.950;11.014;2023-11-21T04:31:13;100502.44;;;-4.87;85.42
62864;BME280;48954;59.950;11.014;2023-11-21T04:34:40;100508.99;;;-4.96;85.14
62864;BME280;48954;59.950;11.014;2023-11-21T05:39:51;100571.14;;;-5.93;85.52
62864;BME280;48954;59.950;11.014;2023-11-21T05:42:18;100575.09;;;-5.96;85.70
62864;BME280;48954;59.950;11.014;2023-11-21T05:44:44;100571.14;;;-5.98;85.81
62864;BME280;48954;59.950;11.014;2023-11-21T05:47:11;100577.24;;;-6.00;85.78
62864;BME280;48954;59.950;11.014;2023-11-21T05:49:54;100583.90;;;-6.02;85.88
62864;BME280;48954;59.950;11.014;2023-11-21T05:52:23;100591.11;;;-6.05;85.52
62864;BME280;48954;59.950;11.014;2023-11-21T05:55:03;100595.33;;;-6.05;85.94
62864;BME280;48954;59.950;11.014;2023-11-21T05:57:37;100596.95;;;-6.07;85.96
62864;BME280;48954;59.950;11.014;2023-11-21T06:00:11;100598.15;;;-6.07;85.61
62864;BME280;48954;59.950;11.014;2023-11-21T06:02:53;100598.15;;;-6.10;85.65
62864;BME280;48954;59.950;11.014;2023-11-21T06:05:35;100599.61;;;-6.14;85.72
62864;BME280;48954;59.950;11.014;2023-11-21T06:08:03;100599.30;;;-6.20;85.79
62864;BME280;48954;59.950;11.014;2023-11-21T06:10:43;100609.20;;;-6.20;85.39
62864;BME280;48954;59.950;11.014;2023-11-21T06:13:24;100607.66;;;-6.21;85.61
62864;BME280;48954;59.950;11.014;2023-11-21T06:15:52;100611.80;;;-6.23;85.53
62864;BME280;48954;59.950;11.014;2023-11-21T06:18:26;100615.41;;;-6.26;85.35
62864;BME280;48954;59.950;11.014;2023-11-21T06:21:09;100619.27;;;-6.30;85.39
62864;BME280;48954;59.950;11.014;2023-11-21T06:24:06;100621.90;;;-6.35;85.51
62864;BME280;48954;59.950;11.014;2023-11-21T06:26:35;100628.58;;;-6.39;85.37
62864;BME280;48954;59.950;11.014;2023-11-21T06:29:05;100628.04;;;-6.42;85.46
62864;BME280;48954;59.950;11.014;2023-11-21T06:31:32;100630.13;;;-6.46;85.45
62864;BME280;48954;59.950;11.014;2023-11-21T06:33:58;100634.31;;;-6.50;85.40
62864;BME280;48954;59.950;11.014;2023-11-21T06:36:25;100639.63;;;-6.54;85.00
62864;BME280;48954;59.950;11.014;2023-11-21T06:39:06;100642.67;;;-6.57;85.20
62864;BME280;48954;59.950;11.014;2023-11-21T06:41:33;100645.75;;;-6.62;85.16
62864;BME280;48954;59.950;11.014;2023-11-21T06:43:59;100651.30;;;-6.65;84.95
62864;BME280;48954;59.950;11.014;2023-11-21T06:46:25;100656.11;;;-6.68;85.15
62864;BME280;48954;59.950;11.014;2023-11-21T06:48:52;100666.98;;;-6.72;85.12
62864;BME280;48954;59.950;11.014;2023-11-21T06:51:18;100671.05;;;-6.75;85.34
62864;BME280;48954;59.950;11.014;2023-11-21T06:53:44;100673.11;;;-6.78;85.12
62864;BME280;48954;59.950;11.014;2023-11-21T06:56:19;100673.02;;;-6.81;85.29
62864;BME280;48954;59.950;11.014;2023-11-21T06:58:46;100683.55;;;-6.85;84.57
62864;BME280;48954;59.950;11.014;2023-11-21T07:01:13;100688.65;;;-6.88;84.86
62864;BME280;48954;59.950;11.014;2023-11-21T07:03:42;100694.42;;;-6.92;84.83
62864;BME280;48954;59.950;11.014;2023-11-21T07:06:08;100699.79;;;-6.95;85.01
62864;BME280;48954;59.950;11.014;2023-11-21T07:08:34;100700.14;;;-6.99;84.59
62864;BME280;48954;59.950;11.014;2023-11-21T07:11:00;100705.11;;;-7.01;84.97
62864;BME280;48954;59.950;11.014;2023-11-21T07:13:26;100710.54;;;-7.04;84.70
62864;BME280;48954;59.950;11.014;2023-11-21T07:15:52;100715.30;;;-7.07;84.65
62864;BME280;48954;59.950;11.014;2023-11-21T07:18:20;100718.84;;;-7.12;84.46
62864;BME280;48954;59.950;11.014;2023-11-21T07:20:46;100718.42;;;-7.15;84.32
62864;BME280;48954;59.950;11.014;2023-11-21T07:23:12;100720.34;;;-7.17;84.62
62864;BME280;48954;59.950;11.014;2023-11-21T07:25:38;100722.20;;;-7.19;84.75
62864;BME280;48954;59.950;11.014;2023-11-21T07:28:04;100722.95;;;-7.21;84.70
62864;BME280;48954;59.950;11.014;2023-11-21T07:30:30;100730.13;;;-7.24;84.19
62864;BME280;48954;59.950;11.014;2023-11-21T07:32:56;100728.80;;;-7.27;84.72
62864;BME280;48954;59.950;11.014;2023-11-21T07:35:22;100735.15;;;-7.28;84.76
62864;BME280;48954;59.950;11.014;2023-11-21T07:37:48;100740.19;;;-7.29;84.30
62864;BME280;48954;59.950;11.014;2023-11-21T07:40:14;100746.35;;;-7.30;84.36
62864;BME280;48954;59.950;11.014;2023-11-21T07:42:40;100744.75;;;-7.30;84.51
62864;BME280;48954;59.950;11.014;2023-11-21T07:45:07;100746.39;;;-7.30;84.42
62864;BME280;48954;59.950;11.014;2023-11-21T07:47:33;100747.89;;;-7.31;84.44
62864;BME280;48954;59.950;11.014;2023-11-21T07:49:59;100748.27;;;-7.32;84.43
62864;BME280;48954;59.950;11.014;2023-11-21T07:52:25;100759.53;;;-7.32;84.36
62864;BME280;48954;59.950;11.014;2023-11-21T07:54:51;100761.79;;;-7.32;84.54
62864;BME280;48954;59.950;11.014;2023-11-21T07:57:16;100764.80;;;-7.33;84.28
62864;BME280;48954;59.950;11.014;2023-11-21T07:59:42;100768.56;;;-7.31;84.57
62864;BME280;48954;59.950;11.014;2023-11-21T08:02:08;100770.90;;;-7.30;84.38
62864;BME280;48954;59.950;11.014;2023-11-21T08:04:34;100774.16;;;-7.28;84.61
62864;BME280;48954;59.950;11.014;2023-11-21T08:07:00;100782.19;;;-7.24;84.67
62864;BME280;48954;59.950;11.014;2023-11-21T08:09:26;100782.53;;;-7.20;84.75
62864;BME280;48954;59.950;11.014;2023-11-21T08:11:53;100780.02;;;-7.17;84.89
62864;BME280;48954;59.950;11.014;2023-11-21T08:14:19;100774.94;;;-7.15;84.70
62864;BME280;48954;59.950;11.014;2023-11-21T08:16:44;100773.93;;;-7.10;84.68
62864;BME280;48954;59.950;11.014;2023-11-21T08:19:12;100775.88;;;-7.04;84.92
62864;BME280;48954;59.950;11.014;2023-11-21T08:21:37;100780.91;;;-6.99;85.15
62864;BME280;48954;59.950;11.014;2023-11-21T08:24:08;100787.98;;;-6.92;85.45
62864;BME280;48954;59.950;11.014;2023-11-21T08:26:34;100791.32;;;-6.86;85.23
62864;BME280;48954;59.950;11.014;2023-11-21T08:29:00;100787.40;;;-6.78;85.39
62864;BME280;48954;59.950;11.014;2023-11-21T08:31:26;100794.08;;;-6.68;85.51
62864;BME280;48954;59.950;11.014;2023-11-21T08:33:52;100795.17;;;-6.58;85.62
62864;BME280;48954;59.950;11.014;2023-11-21T08:36:18;100795.95;;;-6.49;85.62
62864;BME280;48954;59.950;11.014;2023-11-21T08:38:44;100801.95;;;-6.36;86.06
62864;BME280;48954;59.950;11.014;2023-11-21T08:41:11;100807.54;;;-6.24;86.32
62864;BME280;48954;59.950;11.014;2023-11-21T08:43:40;100811.27;;;-6.12;86.30
62864;BME280;48954;59.950;11.014;2023-11-21T08:46:08;100810.45;;;-5.99;86.66
62864;BME280;48954;59.950;11.014;2023-11-21T08:48:37;100813.48;;;-5.88;86.29
62864;BME280;48954;59.950;11.014;2023-11-21T08:51:03;100813.81;;;-5.78;86.38
62864;BME280;48954;59.950;11.014;2023-11-21T08:53:30;100815.41;;;-5.68;86.66
62864;BME280;48954;59.950;11.014;2023-11-21T08:55:56;100818.23;;;-5.59;86.91
62864;BME280;48954;59.950;11.014;2023-11-21T08:58:22;100814.95;;;-5.53;86.67
62864;BME280;48954;59.950;11.014;2023-11-21T09:00:48;100818.31;;;-5.46;86.50
62864;BME280;48954;59.950;11.014;2023-11-21T09:03:13;100828.34;;;-5.37;86.66
62864;BME280;48954;59.950;11.014;2023-11-21T09:05:40;100831.71;;;-5.31;86.51
62864;BME280;48954;59.950;11.014;2023-11-21T09:08:05;100832.06;;;-5.24;86.68
62864;BME280;48954;59.950;11.014;2023-11-21T09:10:31;100836.67;;;-5.18;86.58
62864;BME280;48954;59.950;11.014;2023-11-21T09:12:57;100840.17;;;-5.11;86.70
62864;BME280;48954;59.950;11.014;2023-11-21T09:15:23;100835.25;;;-5.05;86.74
62864;BME280;48954;59.950;11.014;2023-11-21T09:17:49;100842.20;;;-4.98;87.15
62864;BME280;48954;59.950;11.014;2023-11-21T09:20:15;100841.00;;;-4.95;86.70
62864;BME280;48954;59.950;11.014;2023-11-21T09:22:41;100840.64;;;-4.92;86.87
62864;BME280;48954;59.950;11.014;2023-11-21T09:25:07;100850.06;;;-4.87;86.93
62864;BME280;48954;59.950;11.014;2023-11-21T09:27:34;100858.38;;;-4.83;86.91
62864;BME280;48954;59.950;11.014;2023-11-21T09:30:00;100859.65;;;-4.78;86.94
62864;BME280;48954;59.950;11.014;2023-11-21T09:32:26;100867.06;;;-4.74;87.00
62864;BME280;48954;59.950;11.014;2023-11-21T09:34:51;100867.94;;;-4.72;86.88
62864;BME280;48954;59.950;11.014;2023-11-21T09:37:18;100872.81;;;-4.67;86.95
62864;BME280;48954;59.950;11.014;2023-11-21T09:39:44;100875.00;;;-4.64;86.86
62864;BME280;48954;59.950;11.014;2023-11-21T09:42:17;100881.56;;;-4.58;87.07
62864;BME280;48954;59.950;11.014;2023-11-21T09:44:54;100879.13;;;-4.54;86.98
62864;BME280;48954;59.950;11.014;2023-11-21T09:47:24;100880.92;;;-4.51;87.05
62864;BME280;48954;59.950;11.014;2023-11-21T09:49:52;100879.38;;;-4.47;86.99
62864;BME280;48954;59.950;11.014;2023-11-21T09:52:26;100878.28;;;-4.43;86.93
62864;BME280;48954;59.950;11.014;2023-11-21T09:54:54;100876.66;;;-4.41;87.00
62864;BME280;48954;59.950;11.014;2023-11-21T09:57:21;100879.20;;;-4.40;86.93
62864;BME280;48954;59.950;11.014;2023-11-21T09:59:51;100879.43;;;-4.37;86.79
62864;BME280;48954;59.950;11.014;2023-11-21T10:02:17;100878.60;;;-4.34;87.15
62864;BME280;48954;59.950;11.014;2023-11-21T10:04:43;100889.55;;;-4.32;86.98
62864;BME280;48954;59.950;11.014;2023-11-21T10:07:09;100894.68;;;-4.28;87.12
62864;BME280;48954;59.950;11.014;2023-11-21T10:09:36;100888.59;;;-4.26;87.00
62864;BME280;48954;59.950;11.014;2023-11-21T10:12:03;100881.98;;;-4.24;86.97
62864;BME280;48954;59.950;11.014;2023-11-21T10:14:31;100883.61;;;-4.20;87.02
62864;BME280;48954;59.950;11.014;2023-11-21T10:16:57;100882.30;;;-4.18;86.95
62864;BME280;48954;59.950;11.014;2023-11-21T10:19:27;100877.89;;;-4.15;86.98
62864;BME280;48954;59.950;11.014;2023-11-21T10:21:53;100874.09;;;-4.11;87.00
62864;BME280;48954;59.950;11.014;2023-11-21T10:24:19;100876.24;;;-4.07;86.98
62864;BME280;48954;59.950;11.014;2023-11-21T10:26:45;100876.46;;;-4.04;87.01
62864;BME280;48954;59.950;11.014;2023-11-21T10:29:19;100884.02;;;-4.03;86.98
62864;BME280;48954;59.950;11.014;2023-11-21T10:31:51;100878.66;;;-4.04;86.84
62864;BME280;48954;59.950;11.014;2023-11-21T10:34:21;100881.35;;;-4.01;86.95
62864;BME280;48954;59.950;11.014;2023-11-21T10:36:48;100887.58;;;-4.01;86.95
62864;BME280;48954;59.950;11.014;2023-11-21T10:39:18;100888.70;;;-4.02;86.81
62864;BME280;48954;59.950;11.014;2023-11-21T10:41:49;100888.77;;;-4.02;86.97
62864;BME280;48954;59.950;11.014;2023-11-21T10:44:17;100892.23;;;-4.03;86.74
62864;BME280;48954;59.950;11.014;2023-11-21T10:46:43;100896.55;;;-4.05;86.90
62864;BME280;48954;59.950;11.014;2023-11-21T10:49:10;100901.25;;;-4.06;86.80
62864;BME280;48954;59.950;11.014;2023-11-21T10:51:43;100900.04;;;-4.05;86.83
62864;BME280;48954;59.950;11.014;2023-11-21T10:54:10;100896.66;;;-4.02;87.19
62864;BME280;48954;59.950;11.014;2023-11-21T10:56:36;100887.70;;;-3.99;87.19
62864;BME280;48954;59.950;11.014;2023-11-21T10:59:02;100880.88;;;-3.94;87.46
62864;BME280;48954;59.950;11.014;2023-11-21T11:01:29;100879.39;;;-3.87;87.39
62864;BME280;48954;59.950;11.014;2023-11-21T11:03:56;100878.59;;;-3.82;87.45
62864;BME280;48954;59.950;11.014;2023-11-21T11:06:23;100880.79;;;-3.78;87.32
62864;BME280;48954;59.950;11.014;2023-11-21T11:08:50;100876.02;;;-3.76;87.33
62864;BME280;48954;59.950;11.014;2023-11-21T11:11:17;100876.02;;;-3.73;87.12
62864;BME280;48954;59.950;11.014;2023-11-21T11:13:43;100877.20;;;-3.71;87.14
62864;BME280;48954;59.950;11.014;2023-11-21T11:16:11;100873.29;;;-3.71;87.03
62864;BME280;48954;59.950;11.014;2023-11-21T11:18:37;100874.55;;;-3.69;86.94
62864;BME280;48954;59.950;11.014;2023-11-21T11:21:27;100880.36;;;-3.70;87.14
62864;BME280;48954;59.950;11.014;2023-11-21T11:27:30;100882.29;;;-3.65;87.14
62864;BME280;48954;59.950;11.014;2023-11-21T11:33:12;100879.17;;;-3.59;87.08
62864;BME280;48954;59.950;11.014;2023-11-21T11:36:00;100884.50;;;-3.54;87.42
62864;BME280;48954;59.950;11.014;2023-11-21T11:38:34;100889.08;;;-3.50;87.17
62864;BME280;48954;59.950;11.014;2023-11-21T11:41:04;100889.48;;;-3.49;87.34
62864;BME280;48954;59.950;11.014;2023-11-21T11:43:33;100893.16;;;-3.45;87.35
62864;BME280;48954;59.950;11.014;2023-11-21T11:46:09;100897.39;;;-3.43;87.09
62864;BME280;48954;59.950;11.014;2023-11-21T11:48:44;100901.73;;;-3.42;87.17
62864;BME280;48954;59.950;11.014;2023-11-21T11:51:12;100904.61;;;-3.40;87.08
62864;BME280;48954;59.950;11.014;2023-11-21T11:53:42;100898.98;;;-3.40;87.08
62864;BME280;48954;59.950;11.014;2023-11-21T11:56:25;100907.51;;;-3.38;87.12
62864;BME280;48954;59.950;11.014;2023-11-21T11:58:54;100909.10;;;-3.36;87.00
62864;BME280;48954;59.950;11.014;2023-11-21T12:01:20;100913.39;;;-3.33;87.21
62864;BME280;48954;59.950;11.014;2023-11-21T12:06:37;100908.85;;;-3.27;87.03
62864;BME280;48954;59.950;11.014;2023-11-21T12:09:03;100906.52;;;-3.25;87.02
62864;BME280;48954;59.950;11.014;2023-11-21T12:11:32;100903.42;;;-3.22;87.17
62864;BME280;48954;59.950;11.014;2023-11-21T12:13:59;100905.65;;;-3.22;87.11
62864;BME280;48954;59.950;11.014;2023-11-21T12:16:25;100907.50;;;-3.21;86.84
62864;BME280;48954;59.950;11.014;2023-11-21T12:18:51;100907.85;;;-3.22;86.94
62864;BME280;48954;59.950;11.014;2023-11-21T12:21:17;100909.42;;;-3.22;87.02
62864;BME280;48954;59.950;11.014;2023-11-21T12:23:43;100910.94;;;-3.24;86.90
62864;BME280;48954;59.950;11.014;2023-11-21T12:26:09;100915.53;;;-3.25;86.79
62864;BME280;48954;59.950;11.014;2023-11-21T12:28:35;100908.54;;;-3.23;86.82
62864;BME280;48954;59.950;11.014;2023-11-21T12:31:01;100907.56;;;-3.20;86.94
62864;BME280;48954;59.950;11.014;2023-11-21T12:33:27;100906.33;;;-3.18;86.92
62864;BME280;48954;59.950;11.014;2023-11-21T12:35:55;100910.15;;;-3.13;86.91
62864;BME280;48954;59.950;11.014;2023-11-21T12:38:21;100912.98;;;-3.09;86.92
62864;BME280;48954;59.950;11.014;2023-11-21T12:40:47;100918.09;;;-3.08;87.19
62864;BME280;48954;59.950;11.014;2023-11-21T12:43:13;100922.13;;;-3.05;87.17
62864;BME280;48954;59.950;11.014;2023-11-21T12:45:39;100923.02;;;-3.01;87.03
62864;BME280;48954;59.950;11.014;2023-11-21T12:48:05;100922.95;;;-2.98;87.02
62864;BME280;48954;59.950;11.014;2023-11-21T12:50:31;100922.06;;;-3.00;87.00
62864;BME280;48954;59.950;11.014;2023-11-21T12:53:01;100923.70;;;-2.99;86.78
62864;BME280;48954;59.950;11.014;2023-11-21T12:55:33;100924.84;;;-2.98;86.81
62864;BME280;48954;59.950;11.014;2023-11-21T12:58:02;100923.85;;;-3.00;86.96
62864;BME280;48954;59.950;11.014;2023-11-21T13:00:31;100922.83;;;-3.00;86.84
62864;BME280;48954;59.950;11.014;2023-11-21T13:02:58;100928.17;;;-2.99;86.93
62864;BME280;48954;59.950;11.014;2023-11-21T13:05:30;100924.04;;;-2.97;87.19
62864;BME280;48954;59.950;11.014;2023-11-21T13:08:02;100918.33;;;-2.94;87.11
62864;BME280;48954;59.950;11.014;2023-11-21T13:10:32;100917.69;;;-2.92;87.16
62864;BME280;48954;59.950;11.014;2023-11-21T13:12:59;100918.06;;;-2.92;86.89
62864;BME280;48954;59.950;11.014;2023-11-21T13:15:29;100923.59;;;-2.93;87.11
62864;BME280;48954;59.950;11.014;2023-11-21T13:17:55;100928.23;;;-2.92;87.00
62864;BME280;48954;59.950;11.014;2023-11-21T13:20:21;100932.91;;;-2.93;86.76
62864;BME280;48954;59.950;11.014;2023-11-21T13:22:54;100938.69;;;-2.91;86.91
62864;BME280;48954;59.950;11.014;2023-11-21T13:25:21;100943.02;;;-2.93;86.89
62864;BME280;48954;59.950;11.014;2023-11-21T13:27:48;100942.14;;;-2.96;86.77
62864;BME280;48954;59.950;11.014;2023-11-21T13:30:14;100941.80;;;-2.98;86.92
62864;BME280;48954;59.950;11.014;2023-11-21T13:32:42;100939.90;;;-2.99;86.73
62864;BME280;48954;59.950;11.014;2023-11-21T13:35:08;100940.08;;;-3.01;86.85
62864;BME280;48954;59.950;11.014;2023-11-21T13:37:34;100938.44;;;-3.02;86.90
62864;BME280;48954;59.950;11.014;2023-11-21T13:40:00;100935.64;;;-3.03;86.86
62864;BME280;48954;59.950;11.014;2023-11-21T13:42:26;100935.51;;;-3.03;87.04
62864;BME280;48954;59.950;11.014;2023-11-21T13:44:56;100934.44;;;-3.03;86.98
62864;BME280;48954;59.950;11.014;2023-11-21T13:47:22;100939.94;;;-3.03;87.07
62864;BME280;48954;59.950;11.014;2023-11-21T13:49:48;100939.73;;;-3.05;86.85
62864;BME280;48954;59.950;11.014;2023-11-21T13:52:15;100939.29;;;-3.08;86.84
62864;BME280;48954;59.950;11.014;2023-11-21T13:54:41;100945.89;;;-3.09;86.80
62864;BME280;48954;59.950;11.014;2023-11-21T13:57:08;100948.95;;;-3.09;86.74
62864;BME280;48954;59.950;11.014;2023-11-21T13:59:34;100947.66;;;-3.08;86.73
62864;BME280;48954;59.950;11.014;2023-11-21T14:02:00;100954.48;;;-3.07;86.98
62864;BME280;48954;59.950;11.014;2023-11-21T14:04:27;100957.03;;;-3.06;86.96
62864;BME280;48954;59.950;11.014;2023-11-21T14:06:55;100955.81;;;-3.05;86.96
62864;BME280;48954;59.950;11.014;2023-11-21T14:09:22;100954.41;;;-3.08;86.79
62864;BME280;48954;59.950;11.014;2023-11-21T14:11:53;100957.45;;;-3.09;86.70
62864;BME280;48954;59.950;11.014;2023-11-21T14:14:21;100961.15;;;-3.10;86.75
62864;BME280;48954;59.950;11.014;2023-11-21T14:16:47;100966.22;;;-3.13;86.63
62864;BME280;48954;59.950;11.014;2023-11-21T14:19:17;100964.77;;;-3.15;86.62
62864;BME280;48954;59.950;11.014;2023-11-21T14:21:44;100962.52;;;-3.17;86.68
62864;BME280;48954;59.950;11.014;2023-11-21T14:24:13;100965.71;;;-3.19;86.75
62864;BME280;48954;59.950;11.014;2023-11-21T14:26:40;100970.37;;;-3.20;86.63
62864;BME280;48954;59.950;11.014;2023-11-21T14:29:06;100971.95;;;-3.21;86.70
62864;BME280;48954;59.950;11.014;2023-11-21T14:31:32;100971.98;;;-3.23;86.65
62864;BME280;48954;59.950;11.014;2023-11-21T14:33:58;100975.13;;;-3.25;86.76
62864;BME280;48954;59.950;11.014;2023-11-21T14:36:24;100976.22;;;-3.25;86.91
62864;BME280;48954;59.950;11.014;2023-11-21T14:38:50;100973.48;;;-3.27;86.66
62864;BME280;48954;59.950;11.014;2023-11-21T14:41:16;100977.42;;;-3.29;86.88
62864;BME280;48954;59.950;11.014;2023-11-21T14:43:43;100978.41;;;-3.31;86.77
62864;BME280;48954;59.950;11.014;2023-11-21T14:46:10;100979.10;;;-3.33;86.91
62864;BME280;48954;59.950;11.014;2023-11-21T14:48:37;100980.94;;;-3.33;86.82
62864;BME280;48954;59.950;11.014;2023-11-21T14:51:03;100983.42;;;-3.35;86.90
62864;BME280;48954;59.950;11.014;2023-11-21T14:53:29;100985.20;;;-3.37;87.08
62864;BME280;48954;59.950;11.014;2023-11-21T14:55:55;100984.09;;;-3.39;86.80
62864;BME280;48954;59.950;11.014;2023-11-21T14:58:21;100989.73;;;-3.42;86.87
62864;BME280;48954;59.950;11.014;2023-11-21T15:00:49;100987.41;;;-3.42;87.07
62864;BME280;48954;59.950;11.014;2023-11-21T15:03:14;100987.84;;;-3.43;86.97
62864;BME280;48954;59.950;11.014;2023-11-21T15:05:41;100991.42;;;-3.44;86.97
62864;BME280;48954;59.950;11.014;2023-11-21T15:08:07;100994.02;;;-3.43;86.96
62864;BME280;48954;59.950;11.014;2023-11-21T15:10:33;100995.52;;;-3.44;87.22
62864;BME280;48954;59.950;11.014;2023-11-21T15:12:59;101005.66;;;-3.44;87.09
62864;BME280;48954;59.950;11.014;2023-11-21T15:15:25;101005.17;;;-3.47;86.95
62864;BME280;48954;59.950;11.014;2023-11-21T15:17:51;101003.58;;;-3.48;86.91
62864;BME280;48954;59.950;11.014;2023-11-21T15:20:16;101002.17;;;-3.54;86.63
62864;BME280;48954;59.950;11.014;2023-11-21T15:22:42;101007.45;;;-3.61;86.74
62864;BME280;48954;59.950;11.014;2023-11-21T15:25:08;101009.56;;;-3.66;86.74
62864;BME280;48954;59.950;11.014;2023-11-21T15:27:35;101006.00;;;-3.66;86.97
62864;BME280;48954;59.950;11.014;2023-11-21T15:30:02;101004.14;;;-3.66;87.32
62864;BME280;48954;59.950;11.014;2023-11-21T15:32:28;101004.46;;;-3.65;87.30
62864;BME280;48954;59.950;11.014;2023-11-21T15:34:54;101004.53;;;-3.65;87.14
62864;BME280;48954;59.950;11.014;2023-11-21T15:37:20;101006.47;;;-3.65;87.09
62864;BME280;48954;59.950;11.014;2023-11-21T15:39:50;101002.63;;;-3.65;87.25
62864;BME280;48954;59.950;11.014;2023-11-21T15:42:17;101001.59;;;-3.65;87.49
62864;BME280;48954;59.950;11.014;2023-11-21T15:44:43;100996.86;;;-3.63;87.20
62864;BME280;48954;59.950;11.014;2023-11-21T15:47:11;101000.20;;;-3.63;87.24
62864;BME280;48954;59.950;11.014;2023-11-21T15:49:37;101004.88;;;-3.60;87.39
62864;BME280;48954;59.950;11.014;2023-11-21T15:52:04;101007.88;;;-3.58;87.32
62864;BME280;48954;59.950;11.014;2023-11-21T15:54:40;101014.46;;;-3.57;87.34
62864;BME280;48954;59.950;11.014;2023-11-21T15:57:24;101017.27;;;-3.56;87.15
62864;BME280;48954;59.950;11.014;2023-11-21T16:00:06;101013.68;;;-3.57;87.15
62864;BME280;48954;59.950;11.014;2023-11-21T16:02:33;101017.48;;;-3.55;87.46
62864;BME280;48954;59.950;11.014;2023-11-21T16:04:58;101013.91;;;-3.56;87.26
62864;BME280;48954;59.950;11.014;2023-11-21T16:07:25;101022.13;;;-3.56;87.12
62864;BME280;48954;59.950;11.014;2023-11-21T16:09:51;101025.55;;;-3.59;87.15
62864;BME280;48954;59.950;11.014;2023-11-21T16:12:17;101033.41;;;-3.59;87.16
62864;BME280;48954;59.950;11.014;2023-11-21T16:14:43;101033.27;;;-3.61;87.14
62864;BME280;48954;59.950;11.014;2023-11-21T16:17:10;101037.50;;;-3.59;87.28
62864;BME280;48954;59.950;11.014;2023-11-21T16:19:37;101031.80;;;-3.59;87.31
62864;BME280;48954;59.950;11.014;2023-11-21T16:22:04;101029.51;;;-3.58;87.33
62864;BME280;48954;59.950;11.014;2023-11-21T16:24:30;101032.92;;;-3.54;87.36
62864;BME280;48954;59.950;11.014;2023-11-21T16:26:57;101025.02;;;-3.54;87.50
62864;BME280;48954;59.950;11.014;2023-11-21T16:29:47;101024.33;;;-3.52;87.29
62864;BME280;48954;59.950;11.014;2023-11-21T16:32:19;101023.76;;;-3.51;87.30
62864;BME280;48954;59.950;11.014;2023-11-21T16:35:26;101021.29;;;-3.50;87.36
62864;BME280;48954;59.950;11.014;2023-11-21T16:38:10;101022.28;;;-3.49;87.25
62864;BME280;48954;59.950;11.014;2023-11-21T16:41:19;101015.77;;;-3.49;87.21
62864;BME280;48954;59.950;11.014;2023-11-21T16:44:53;101004.55;;;-3.51;87.32
62864;BME280;48954;59.950;11.014;2023-11-21T16:48:10;101006.62;;;-3.53;87.39
62864;BME280;48954;59.950;11.014;2023-11-21T16:50:43;101012.05;;;-3.53;87.40
62864;BME280;48954;59.950;11.014;2023-11-21T16:53:25;101014.23;;;-3.54;87.31
62864;BME280;48954;59.950;11.014;2023-11-21T16:56:15;101024.89;;;-3.54;87.34
62864;BME280;48954;59.950;11.014;2023-11-21T16:58:43;101021.40;;;-3.53;87.57
62864;BME280;48954;59.950;11.014;2023-11-21T17:01:10;101014.90;;;-3.53;87.41
62864;BME280;48954;59.950;11.014;2023-11-21T17:03:40;101014.95;;;-3.53;87.52
62864;BME280;48954;59.950;11.014;2023-11-21T17:06:07;101018.40;;;-3.52;87.42
62864;BME280;48954;59.950;11.014;2023-11-21T17:08:39;101017.38;;;-3.53;87.38
62864;BME280;48954;59.950;11.014;2023-11-21T17:13:55;101028.27;;;-3.51;87.41
62864;BME280;48954;59.950;11.014;2023-11-21T17:16:24;101029.16;;;-3.49;87.40
62864;BME280;48954;59.950;11.014;2023-11-21T17:18:52;101029.27;;;-3.49;87.28